sensor_id;sensor_type;location;lat;lon;timestamp;temperature;humidity
39427;DHT22;25938;48.470;1.486;2022-11-09T00:01:04;17.80;72.40
39427;DHT22;25938;48.470;1.486;2022-11-09T00:03:30;17.80;72.50
39427;DHT22;25938;48.470;1.486;2022-11-09T00:05:57;17.80;72.40
39427;DHT22;25938;48.470;1.486;2022-11-09T00:08:23;17.80;72.50
39427;DHT22;25938;48.470;1.486;2022-11-09T00:10:48;17.80;72.50
39427;DHT22;25938;48.470;1.486;2022-11-09T00:13:14;17.80;72.50
39427;DHT22;25938;48.470;1.486;2022-11-09T00:15:40;17.80;72.50
39427;DHT22;25938;48.470;1.486;2022-11-09T00:18:05;17.80;72.40
39427;DHT22;25938;48.470;1.486;2022-11-09T00:20:31;17.80;72.40
39427;DHT22;25938;48.470;1.486;2022-11-09T00:22:57;17.80;72.30
39427;DHT22;25938;48.470;1.486;2022-11-09T00:25:23;17.80;72.30
39427;DHT22;25938;48.470;1.486;2022-11-09T00:27:48;17.80;72.20
39427;DHT22;25938;48.470;1.486;2022-11-09T00:30:14;17.80;72.20
39427;DHT22;25938;48.470;1.486;2022-11-09T00:32:40;17.80;72.20
39427;DHT22;25938;48.470;1.486;2022-11-09T00:35:05;17.70;72.10
39427;DHT22;25938;48.470;1.486;2022-11-09T00:37:31;17.80;72.10
39427;DHT22;25938;48.470;1.486;2022-11-09T00:39:57;17.80;72.10
39427;DHT22;25938;48.470;1.486;2022-11-09T00:42:23;17.80;72.00
39427;DHT22;25938;48.470;1.486;2022-11-09T00:44:48;17.80;72.00
39427;DHT22;25938;48.470;1.486;2022-11-09T00:47:14;17.70;71.80
39427;DHT22;25938;48.470;1.486;2022-11-09T00:49:40;17.70;71.80
39427;DHT22;25938;48.470;1.486;2022-11-09T00:52:05;17.80;71.70
39427;DHT22;25938;48.470;1.486;2022-11-09T00:54:31;17.70;71.60
39427;DHT22;25938;48.470;1.486;2022-11-09T00:56:57;17.80;71.60
39427;DHT22;25938;48.470;1.486;2022-11-09T00:59:22;17.70;71.50
39427;DHT22;25938;48.470;1.486;2022-11-09T01:01:48;17.70;71.40
39427;DHT22;25938;48.470;1.486;2022-11-09T01:04:13;17.70;71.30
39427;DHT22;25938;48.470;1.486;2022-11-09T01:06:39;17.70;71.30
39427;DHT22;25938;48.470;1.486;2022-11-09T01:09:05;17.70;71.20
39427;DHT22;25938;48.470;1.486;2022-11-09T01:11:30;17.70;71.10
39427;DHT22;25938;48.470;1.486;2022-11-09T01:13:58;17.70;71.10
39427;DHT22;25938;48.470;1.486;2022-11-09T01:16:25;17.70;71.60
39427;DHT22;25938;48.470;1.486;2022-11-09T01:18:55;17.70;71.00
39427;DHT22;25938;48.470;1.486;2022-11-09T01:21:21;17.70;70.90
39427;DHT22;25938;48.470;1.486;2022-11-09T01:23:47;17.70;70.90
39427;DHT22;25938;48.470;1.486;2022-11-09T01:26:14;17.70;70.80
39427;DHT22;25938;48.470;1.486;2022-11-09T01:28:40;17.70;70.80
39427;DHT22;25938;48.470;1.486;2022-11-09T01:31:15;17.70;70.70
39427;DHT22;25938;48.470;1.486;2022-11-09T01:33:41;17.70;70.60
39427;DHT22;25938;48.470;1.486;2022-11-09T01:36:14;17.70;70.60
39427;DHT22;25938;48.470;1.486;2022-11-09T01:38:40;17.70;70.40
39427;DHT22;25938;48.470;1.486;2022-11-09T01:41:06;17.70;70.40
39427;DHT22;25938;48.470;1.486;2022-11-09T01:43:32;17.70;70.40
39427;DHT22;25938;48.470;1.486;2022-11-09T01:46:04;17.70;70.30
39427;DHT22;25938;48.470;1.486;2022-11-09T01:48:58;17.70;70.20
39427;DHT22;25938;48.470;1.486;2022-11-09T01:51:38;17.70;70.00
39427;DHT22;25938;48.470;1.486;2022-11-09T01:54:11;17.70;70.00
39427;DHT22;25938;48.470;1.486;2022-11-09T01:56:37;17.70;70.00
39427;DHT22;25938;48.470;1.486;2022-11-09T01:59:21;17.70;69.90
39427;DHT22;25938;48.470;1.486;2022-11-09T02:01:47;17.60;69.70
39427;DHT22;25938;48.470;1.486;2022-11-09T02:04:22;17.70;69.90
39427;DHT22;25938;48.470;1.486;2022-11-09T02:06:49;17.70;69.80
39427;DHT22;25938;48.470;1.486;2022-11-09T02:12:06;17.60;69.60
39427;DHT22;25938;48.470;1.486;2022-11-09T02:14:33;17.60;69.60
39427;DHT22;25938;48.470;1.486;2022-11-09T02:17:00;17.60;69.50
39427;DHT22;25938;48.470;1.486;2022-11-09T02:19:26;17.60;69.50
39427;DHT22;25938;48.470;1.486;2022-11-09T02:21:51;17.60;69.50
39427;DHT22;25938;48.470;1.486;2022-11-09T02:24:17;17.60;69.40
39427;DHT22;25938;48.470;1.486;2022-11-09T02:26:48;17.60;69.40
39427;DHT22;25938;48.470;1.486;2022-11-09T02:29:21;17.60;69.30
39427;DHT22;25938;48.470;1.486;2022-11-09T02:31:49;17.60;69.20
39427;DHT22;25938;48.470;1.486;2022-11-09T02:34:18;17.60;69.30
39427;DHT22;25938;48.470;1.486;2022-11-09T02:36:44;17.60;69.30
39427;DHT22;25938;48.470;1.486;2022-11-09T02:39:10;17.60;69.20
39427;DHT22;25938;48.470;1.486;2022-11-09T02:41:45;17.60;69.10
39427;DHT22;25938;48.470;1.486;2022-11-09T02:44:12;17.60;69.10
39427;DHT22;25938;48.470;1.486;2022-11-09T02:46:38;17.60;69.10
39427;DHT22;25938;48.470;1.486;2022-11-09T02:49:04;17.60;69.10
39427;DHT22;25938;48.470;1.486;2022-11-09T02:51:30;17.60;69.00
39427;DHT22;25938;48.470;1.486;2022-11-09T02:53:55;17.60;68.90
39427;DHT22;25938;48.470;1.486;2022-11-09T02:56:21;17.60;68.90
39427;DHT22;25938;48.470;1.486;2022-11-09T02:58:47;17.60;68.90
39427;DHT22;25938;48.470;1.486;2022-11-09T03:01:13;17.50;68.90
39427;DHT22;25938;48.470;1.486;2022-11-09T03:03:38;17.50;68.90
39427;DHT22;25938;48.470;1.486;2022-11-09T03:06:04;17.60;68.90
39427;DHT22;25938;48.470;1.486;2022-11-09T03:08:30;17.60;68.90
39427;DHT22;25938;48.470;1.486;2022-11-09T03:10:58;17.60;68.90
39427;DHT22;25938;48.470;1.486;2022-11-09T03:13:24;17.50;68.90
39427;DHT22;25938;48.470;1.486;2022-11-09T03:15:49;17.50;68.90
39427;DHT22;25938;48.470;1.486;2022-11-09T03:18:15;17.50;68.90
39427;DHT22;25938;48.470;1.486;2022-11-09T03:20:40;17.50;68.90
39427;DHT22;25938;48.470;1.486;2022-11-09T03:23:06;17.50;68.90
39427;DHT22;25938;48.470;1.486;2022-11-09T03:25:32;17.50;68.90
39427;DHT22;25938;48.470;1.486;2022-11-09T03:28:02;17.50;68.90
39427;DHT22;25938;48.470;1.486;2022-11-09T03:30:29;17.50;69.00
39427;DHT22;25938;48.470;1.486;2022-11-09T03:33:03;17.50;69.00
39427;DHT22;25938;48.470;1.486;2022-11-09T03:35:30;17.50;69.00
39427;DHT22;25938;48.470;1.486;2022-11-09T03:37:55;17.50;69.10
39427;DHT22;25938;48.470;1.486;2022-11-09T03:40:21;17.50;69.10
39427;DHT22;25938;48.470;1.486;2022-11-09T03:42:47;17.50;69.10
39427;DHT22;25938;48.470;1.486;2022-11-09T03:45:14;17.50;69.10
39427;DHT22;25938;48.470;1.486;2022-11-09T03:47:44;17.50;69.10
39427;DHT22;25938;48.470;1.486;2022-11-09T03:50:11;17.50;69.20
39427;DHT22;25938;48.470;1.486;2022-11-09T03:52:37;17.50;69.20
39427;DHT22;25938;48.470;1.486;2022-11-09T03:55:04;17.50;69.30
39427;DHT22;25938;48.470;1.486;2022-11-09T03:57:30;17.50;69.30
39427;DHT22;25938;48.470;1.486;2022-11-09T03:59:56;17.50;69.30
39427;DHT22;25938;48.470;1.486;2022-11-09T04:02:21;17.50;69.30
39427;DHT22;25938;48.470;1.486;2022-11-09T04:04:47;17.50;69.40
39427;DHT22;25938;48.470;1.486;2022-11-09T04:07:13;17.50;69.40
39427;DHT22;25938;48.470;1.486;2022-11-09T04:09:39;17.50;69.50
39427;DHT22;25938;48.470;1.486;2022-11-09T04:12:04;17.50;69.50
39427;DHT22;25938;48.470;1.486;2022-11-09T04:14:30;17.50;69.50
39427;DHT22;25938;48.470;1.486;2022-11-09T04:16:56;17.50;69.50
39427;DHT22;25938;48.470;1.486;2022-11-09T04:19:22;17.50;69.50
39427;DHT22;25938;48.470;1.486;2022-11-09T04:21:48;17.50;69.50
39427;DHT22;25938;48.470;1.486;2022-11-09T04:24:14;17.50;69.50
39427;DHT22;25938;48.470;1.486;2022-11-09T04:26:39;17.50;69.50
39427;DHT22;25938;48.470;1.486;2022-11-09T04:29:05;17.50;69.50
39427;DHT22;25938;48.470;1.486;2022-11-09T04:31:31;17.50;69.50
39427;DHT22;25938;48.470;1.486;2022-11-09T04:33:56;17.50;69.40
39427;DHT22;25938;48.470;1.486;2022-11-09T04:36:22;17.50;69.40
39427;DHT22;25938;48.470;1.486;2022-11-09T04:38:48;17.50;69.50
39427;DHT22;25938;48.470;1.486;2022-11-09T04:41:13;17.50;69.40
39427;DHT22;25938;48.470;1.486;2022-11-09T04:43:39;17.50;69.40
39427;DHT22;25938;48.470;1.486;2022-11-09T04:46:05;17.50;69.30
39427;DHT22;25938;48.470;1.486;2022-11-09T04:48:31;17.50;69.40
39427;DHT22;25938;48.470;1.486;2022-11-09T04:51:01;17.50;69.40
39427;DHT22;25938;48.470;1.486;2022-11-09T04:53:28;17.50;69.30
39427;DHT22;25938;48.470;1.486;2022-11-09T04:55:54;17.50;69.40
39427;DHT22;25938;48.470;1.486;2022-11-09T04:58:19;17.50;69.40
39427;DHT22;25938;48.470;1.486;2022-11-09T05:00:45;17.50;69.40
39427;DHT22;25938;48.470;1.486;2022-11-09T05:03:10;17.50;69.40
39427;DHT22;25938;48.470;1.486;2022-11-09T05:05:37;17.50;69.50
39427;DHT22;25938;48.470;1.486;2022-11-09T05:08:03;17.50;69.50
39427;DHT22;25938;48.470;1.486;2022-11-09T05:10:29;17.50;69.50
39427;DHT22;25938;48.470;1.486;2022-11-09T05:13:06;17.50;69.50
39427;DHT22;25938;48.470;1.486;2022-11-09T05:15:33;17.50;69.50
39427;DHT22;25938;48.470;1.486;2022-11-09T05:18:00;17.50;69.50
39427;DHT22;25938;48.470;1.486;2022-11-09T05:20:26;17.50;69.50
39427;DHT22;25938;48.470;1.486;2022-11-09T05:22:53;17.50;69.60
39427;DHT22;25938;48.470;1.486;2022-11-09T05:25:37;17.50;69.60
39427;DHT22;25938;48.470;1.486;2022-11-09T05:28:03;17.50;69.60
39427;DHT22;25938;48.470;1.486;2022-11-09T05:30:29;17.50;69.70
39427;DHT22;25938;48.470;1.486;2022-11-09T05:32:55;17.50;69.70
39427;DHT22;25938;48.470;1.486;2022-11-09T05:35:21;17.50;69.70
39427;DHT22;25938;48.470;1.486;2022-11-09T05:37:47;17.50;69.70
39427;DHT22;25938;48.470;1.486;2022-11-09T05:40:14;17.50;69.80
39427;DHT22;25938;48.470;1.486;2022-11-09T05:42:40;17.50;69.80
39427;DHT22;25938;48.470;1.486;2022-11-09T05:45:07;17.50;69.90
39427;DHT22;25938;48.470;1.486;2022-11-09T05:47:38;17.60;70.60
39427;DHT22;25938;48.470;1.486;2022-11-09T05:50:04;17.50;70.00
39427;DHT22;25938;48.470;1.486;2022-11-09T05:52:30;17.50;70.10
39427;DHT22;25938;48.470;1.486;2022-11-09T05:54:56;17.50;70.10
39427;DHT22;25938;48.470;1.486;2022-11-09T05:57:21;17.60;70.20
39427;DHT22;25938;48.470;1.486;2022-11-09T05:59:47;17.50;70.20
39427;DHT22;25938;48.470;1.486;2022-11-09T06:02:13;17.50;70.30
39427;DHT22;25938;48.470;1.486;2022-11-09T06:04:38;17.50;70.30
39427;DHT22;25938;48.470;1.486;2022-11-09T06:07:04;17.50;70.30
39427;DHT22;25938;48.470;1.486;2022-11-09T06:09:29;17.50;70.30
39427;DHT22;25938;48.470;1.486;2022-11-09T06:11:55;17.50;70.30
39427;DHT22;25938;48.470;1.486;2022-11-09T06:14:21;17.50;70.30
39427;DHT22;25938;48.470;1.486;2022-11-09T06:16:46;17.50;70.30
39427;DHT22;25938;48.470;1.486;2022-11-09T06:19:12;17.50;70.30
39427;DHT22;25938;48.470;1.486;2022-11-09T06:21:37;17.50;70.30
39427;DHT22;25938;48.470;1.486;2022-11-09T06:24:03;17.50;70.30
39427;DHT22;25938;48.470;1.486;2022-11-09T06:26:29;17.60;70.40
39427;DHT22;25938;48.470;1.486;2022-11-09T06:28:54;17.50;70.30
39427;DHT22;25938;48.470;1.486;2022-11-09T06:31:20;17.60;70.40
39427;DHT22;25938;48.470;1.486;2022-11-09T06:33:45;17.60;70.50
39427;DHT22;25938;48.470;1.486;2022-11-09T06:36:11;17.50;70.40
39427;DHT22;25938;48.470;1.486;2022-11-09T06:38:37;17.50;70.50
39427;DHT22;25938;48.470;1.486;2022-11-09T06:41:03;17.50;70.50
39427;DHT22;25938;48.470;1.486;2022-11-09T06:43:29;17.50;70.50
39427;DHT22;25938;48.470;1.486;2022-11-09T06:45:55;17.50;70.60
39427;DHT22;25938;48.470;1.486;2022-11-09T06:48:21;17.50;70.60
39427;DHT22;25938;48.470;1.486;2022-11-09T06:50:47;17.50;70.60
39427;DHT22;25938;48.470;1.486;2022-11-09T06:53:14;17.50;70.70
39427;DHT22;25938;48.470;1.486;2022-11-09T06:55:41;17.50;70.80
39427;DHT22;25938;48.470;1.486;2022-11-09T06:58:12;17.40;70.80
39427;DHT22;25938;48.470;1.486;2022-11-09T07:00:44;17.50;71.00
39427;DHT22;25938;48.470;1.486;2022-11-09T07:03:17;17.50;71.00
39427;DHT22;25938;48.470;1.486;2022-11-09T07:05:43;17.50;71.00
39427;DHT22;25938;48.470;1.486;2022-11-09T07:08:09;17.50;71.00
39427;DHT22;25938;48.470;1.486;2022-11-09T07:10:35;17.50;71.10
39427;DHT22;25938;48.470;1.486;2022-11-09T07:13:01;17.50;71.10
39427;DHT22;25938;48.470;1.486;2022-11-09T07:15:28;17.50;71.10
39427;DHT22;25938;48.470;1.486;2022-11-09T07:18:01;17.50;71.10
39427;DHT22;25938;48.470;1.486;2022-11-09T07:20:27;17.50;71.20
39427;DHT22;25938;48.470;1.486;2022-11-09T07:22:53;17.50;71.20
39427;DHT22;25938;48.470;1.486;2022-11-09T07:25:19;17.40;71.10
39427;DHT22;25938;48.470;1.486;2022-11-09T07:27:45;17.50;71.20
39427;DHT22;25938;48.470;1.486;2022-11-09T07:30:11;17.50;71.20
39427;DHT22;25938;48.470;1.486;2022-11-09T07:32:38;17.50;71.30
39427;DHT22;25938;48.470;1.486;2022-11-09T07:35:04;17.50;71.30
39427;DHT22;25938;48.470;1.486;2022-11-09T07:37:30;17.50;71.30
39427;DHT22;25938;48.470;1.486;2022-11-09T07:39:56;17.40;71.30
39427;DHT22;25938;48.470;1.486;2022-11-09T07:42:23;17.50;71.40
39427;DHT22;25938;48.470;1.486;2022-11-09T07:44:49;17.50;71.40
39427;DHT22;25938;48.470;1.486;2022-11-09T07:47:16;17.40;71.30
39427;DHT22;25938;48.470;1.486;2022-11-09T07:49:42;17.50;71.50
39427;DHT22;25938;48.470;1.486;2022-11-09T07:52:08;17.50;71.50
39427;DHT22;25938;48.470;1.486;2022-11-09T07:54:33;17.50;71.50
39427;DHT22;25938;48.470;1.486;2022-11-09T07:57:00;17.50;71.50
39427;DHT22;25938;48.470;1.486;2022-11-09T07:59:25;17.50;71.50
39427;DHT22;25938;48.470;1.486;2022-11-09T08:01:51;17.50;71.50
39427;DHT22;25938;48.470;1.486;2022-11-09T08:04:17;17.40;71.50
39427;DHT22;25938;48.470;1.486;2022-11-09T08:06:42;17.40;71.50
39427;DHT22;25938;48.470;1.486;2022-11-09T08:09:08;17.50;71.60
39427;DHT22;25938;48.470;1.486;2022-11-09T08:11:33;17.50;71.60
39427;DHT22;25938;48.470;1.486;2022-11-09T08:13:59;17.50;71.60
39427;DHT22;25938;48.470;1.486;2022-11-09T08:16:25;17.50;71.60
39427;DHT22;25938;48.470;1.486;2022-11-09T08:18:50;17.50;71.60
39427;DHT22;25938;48.470;1.486;2022-11-09T08:21:17;17.40;71.50
39427;DHT22;25938;48.470;1.486;2022-11-09T08:23:43;17.50;71.60
39427;DHT22;25938;48.470;1.486;2022-11-09T08:26:09;17.40;71.60
39427;DHT22;25938;48.470;1.486;2022-11-09T08:28:36;17.40;71.60
39427;DHT22;25938;48.470;1.486;2022-11-09T08:31:04;17.40;71.70
39427;DHT22;25938;48.470;1.486;2022-11-09T08:33:34;17.40;71.80
39427;DHT22;25938;48.470;1.486;2022-11-09T08:36:00;17.40;71.80
39427;DHT22;25938;48.470;1.486;2022-11-09T08:38:26;17.40;71.90
39427;DHT22;25938;48.470;1.486;2022-11-09T08:40:58;17.50;72.00
39427;DHT22;25938;48.470;1.486;2022-11-09T08:43:24;17.50;72.10
39427;DHT22;25938;48.470;1.486;2022-11-09T08:45:50;17.50;72.10
39427;DHT22;25938;48.470;1.486;2022-11-09T08:48:15;17.50;72.10
39427;DHT22;25938;48.470;1.486;2022-11-09T08:50:41;17.50;72.20
39427;DHT22;25938;48.470;1.486;2022-11-09T08:53:06;17.50;72.20
39427;DHT22;25938;48.470;1.486;2022-11-09T08:55:33;17.40;72.20
39427;DHT22;25938;48.470;1.486;2022-11-09T08:58:00;17.50;72.30
39427;DHT22;25938;48.470;1.486;2022-11-09T09:00:26;17.50;72.30
39427;DHT22;25938;48.470;1.486;2022-11-09T09:02:53;17.50;72.40
39427;DHT22;25938;48.470;1.486;2022-11-09T09:05:19;17.40;72.30
39427;DHT22;25938;48.470;1.486;2022-11-09T09:07:45;17.50;72.40
39427;DHT22;25938;48.470;1.486;2022-11-09T09:10:10;17.50;72.40
39427;DHT22;25938;48.470;1.486;2022-11-09T09:12:36;17.50;72.40
39427;DHT22;25938;48.470;1.486;2022-11-09T09:15:03;17.40;72.40
39427;DHT22;25938;48.470;1.486;2022-11-09T09:17:28;17.50;72.50
39427;DHT22;25938;48.470;1.486;2022-11-09T09:19:54;17.50;72.60
39427;DHT22;25938;48.470;1.486;2022-11-09T09:22:20;17.50;72.60
39427;DHT22;25938;48.470;1.486;2022-11-09T09:24:45;17.50;72.60
39427;DHT22;25938;48.470;1.486;2022-11-09T09:27:11;17.40;72.60
39427;DHT22;25938;48.470;1.486;2022-11-09T09:29:37;17.50;72.80
39427;DHT22;25938;48.470;1.486;2022-11-09T09:32:03;17.50;72.90
39427;DHT22;25938;48.470;1.486;2022-11-09T09:34:28;17.50;72.90
39427;DHT22;25938;48.470;1.486;2022-11-09T09:36:54;17.50;73.00
39427;DHT22;25938;48.470;1.486;2022-11-09T09:39:20;17.50;73.00
39427;DHT22;25938;48.470;1.486;2022-11-09T09:41:55;17.40;73.00
39427;DHT22;25938;48.470;1.486;2022-11-09T09:44:29;17.50;73.10
39427;DHT22;25938;48.470;1.486;2022-11-09T09:49:40;17.50;73.20
39427;DHT22;25938;48.470;1.486;2022-11-09T09:54:59;17.40;73.20
39427;DHT22;25938;48.470;1.486;2022-11-09T09:57:29;17.50;73.30
39427;DHT22;25938;48.470;1.486;2022-11-09T09:59:58;17.40;73.20
39427;DHT22;25938;48.470;1.486;2022-11-09T10:02:30;17.50;73.30
39427;DHT22;25938;48.470;1.486;2022-11-09T10:04:59;17.50;73.30
39427;DHT22;25938;48.470;1.486;2022-11-09T10:12:53;17.50;73.10
39427;DHT22;25938;48.470;1.486;2022-11-09T10:15:32;17.50;73.30
39427;DHT22;25938;48.470;1.486;2022-11-09T10:26:57;17.50;73.30
39427;DHT22;25938;48.470;1.486;2022-11-09T10:32:00;17.50;73.20
39427;DHT22;25938;48.470;1.486;2022-11-09T10:34:45;17.50;73.10
39427;DHT22;25938;48.470;1.486;2022-11-09T10:37:26;17.50;72.80
39427;DHT22;25938;48.470;1.486;2022-11-09T10:40:10;17.50;72.70
39427;DHT22;25938;48.470;1.486;2022-11-09T10:42:44;17.50;72.50
39427;DHT22;25938;48.470;1.486;2022-11-09T10:45:28;17.50;72.40
39427;DHT22;25938;48.470;1.486;2022-11-09T10:47:54;17.50;72.20
39427;DHT22;25938;48.470;1.486;2022-11-09T10:53:20;17.50;71.80
39427;DHT22;25938;48.470;1.486;2022-11-09T10:55:51;17.50;71.70
39427;DHT22;25938;48.470;1.486;2022-11-09T11:01:00;17.50;71.50
39427;DHT22;25938;48.470;1.486;2022-11-09T11:03:27;17.50;71.40
39427;DHT22;25938;48.470;1.486;2022-11-09T11:08:41;17.50;71.30
39427;DHT22;25938;48.470;1.486;2022-11-09T11:13:32;17.50;71.90
39427;DHT22;25938;48.470;1.486;2022-11-09T11:15:58;17.50;71.20
39427;DHT22;25938;48.470;1.486;2022-11-09T11:18:25;17.50;71.20
39427;DHT22;25938;48.470;1.486;2022-11-09T11:21:21;17.50;71.10
39427;DHT22;25938;48.470;1.486;2022-11-09T11:24:17;17.50;70.90
39427;DHT22;25938;48.470;1.486;2022-11-09T11:31:43;17.50;71.00
39427;DHT22;25938;48.470;1.486;2022-11-09T11:34:13;17.50;71.00
39427;DHT22;25938;48.470;1.486;2022-11-09T11:36:54;17.50;71.00
39427;DHT22;25938;48.470;1.486;2022-11-09T12:07:16;17.60;70.50
39427;DHT22;25938;48.470;1.486;2022-11-09T12:18:04;17.60;70.30
39427;DHT22;25938;48.470;1.486;2022-11-09T12:20:46;17.50;70.30
39427;DHT22;25938;48.470;1.486;2022-11-09T12:29:20;17.50;70.20
39427;DHT22;25938;48.470;1.486;2022-11-09T12:37:31;17.60;69.90
39427;DHT22;25938;48.470;1.486;2022-11-09T12:42:50;17.60;69.50
39427;DHT22;25938;48.470;1.486;2022-11-09T12:45:28;17.60;69.50
39427;DHT22;25938;48.470;1.486;2022-11-09T12:47:55;17.60;69.50
39427;DHT22;25938;48.470;1.486;2022-11-09T12:50:24;17.60;69.50
39427;DHT22;25938;48.470;1.486;2022-11-09T12:52:51;17.60;69.50
39427;DHT22;25938;48.470;1.486;2022-11-09T12:55:46;17.60;69.40
39427;DHT22;25938;48.470;1.486;2022-11-09T12:58:23;17.60;69.30
39427;DHT22;25938;48.470;1.486;2022-11-09T13:00:52;17.60;69.30
39427;DHT22;25938;48.470;1.486;2022-11-09T13:03:23;17.60;69.40
39427;DHT22;25938;48.470;1.486;2022-11-09T13:06:12;17.60;69.40
39427;DHT22;25938;48.470;1.486;2022-11-09T13:08:40;17.60;69.50
39427;DHT22;25938;48.470;1.486;2022-11-09T13:14:25;17.60;69.50
39427;DHT22;25938;48.470;1.486;2022-11-09T13:16:58;17.60;69.50
39427;DHT22;25938;48.470;1.486;2022-11-09T13:27:56;17.60;69.10
39427;DHT22;25938;48.470;1.486;2022-11-09T13:40:46;17.60;69.20
39427;DHT22;25938;48.470;1.486;2022-11-09T13:43:18;17.60;69.20
39427;DHT22;25938;48.470;1.486;2022-11-09T13:46:00;17.60;69.00
39427;DHT22;25938;48.470;1.486;2022-11-09T13:48:44;17.60;68.60
39427;DHT22;25938;48.470;1.486;2022-11-09T13:54:27;17.60;68.70
39427;DHT22;25938;48.470;1.486;2022-11-09T13:56:53;17.60;68.50
39427;DHT22;25938;48.470;1.486;2022-11-09T13:59:27;17.60;68.70
39427;DHT22;25938;48.470;1.486;2022-11-09T14:01:59;17.60;68.50
39427;DHT22;25938;48.470;1.486;2022-11-09T14:04:37;17.60;68.40
39427;DHT22;25938;48.470;1.486;2022-11-09T14:20:40;17.60;68.00
39427;DHT22;25938;48.470;1.486;2022-11-09T14:23:19;17.60;68.00
39427;DHT22;25938;48.470;1.486;2022-11-09T14:25:45;17.70;68.00
39427;DHT22;25938;48.470;1.486;2022-11-09T14:28:30;17.70;68.00
39427;DHT22;25938;48.470;1.486;2022-11-09T14:30:57;17.70;67.90
39427;DHT22;25938;48.470;1.486;2022-11-09T14:33:30;17.70;68.00
39427;DHT22;25938;48.470;1.486;2022-11-09T14:36:00;17.60;67.90
39427;DHT22;25938;48.470;1.486;2022-11-09T14:38:34;17.60;68.00
39427;DHT22;25938;48.470;1.486;2022-11-09T14:41:01;17.60;68.40
39427;DHT22;25938;48.470;1.486;2022-11-09T14:43:38;17.70;67.80
39427;DHT22;25938;48.470;1.486;2022-11-09T14:46:11;17.60;67.50
39427;DHT22;25938;48.470;1.486;2022-11-09T14:48:39;17.70;67.50
39427;DHT22;25938;48.470;1.486;2022-11-09T14:51:06;17.60;67.40
39427;DHT22;25938;48.470;1.486;2022-11-09T14:53:37;17.70;67.30
39427;DHT22;25938;48.470;1.486;2022-11-09T14:56:18;17.70;67.20
39427;DHT22;25938;48.470;1.486;2022-11-09T14:58:46;17.70;67.20
39427;DHT22;25938;48.470;1.486;2022-11-09T15:03:45;17.70;67.10
39427;DHT22;25938;48.470;1.486;2022-11-09T15:06:31;17.70;67.10
39427;DHT22;25938;48.470;1.486;2022-11-09T15:08:59;17.70;67.10
39427;DHT22;25938;48.470;1.486;2022-11-09T15:11:37;17.70;67.00
39427;DHT22;25938;48.470;1.486;2022-11-09T15:14:33;17.70;66.80
39427;DHT22;25938;48.470;1.486;2022-11-09T15:17:16;17.70;66.80
39427;DHT22;25938;48.470;1.486;2022-11-09T15:19:55;17.70;66.90
39427;DHT22;25938;48.470;1.486;2022-11-09T15:26:04;17.70;66.90
39427;DHT22;25938;48.470;1.486;2022-11-09T15:30:40;17.70;67.10
39427;DHT22;25938;48.470;1.486;2022-11-09T15:33:27;17.70;67.10
39427;DHT22;25938;48.470;1.486;2022-11-09T15:36:03;17.70;66.90
39427;DHT22;25938;48.470;1.486;2022-11-09T15:38:38;17.70;67.00
39427;DHT22;25938;48.470;1.486;2022-11-09T15:41:17;17.70;67.00
39427;DHT22;25938;48.470;1.486;2022-11-09T15:43:43;17.70;66.90
39427;DHT22;25938;48.470;1.486;2022-11-09T15:46:14;17.70;67.10
39427;DHT22;25938;48.470;1.486;2022-11-09T15:48:40;17.70;67.00
39427;DHT22;25938;48.470;1.486;2022-11-09T15:51:06;17.70;67.10
39427;DHT22;25938;48.470;1.486;2022-11-09T15:53:32;17.70;67.10
39427;DHT22;25938;48.470;1.486;2022-11-09T15:55:59;17.70;67.10
39427;DHT22;25938;48.470;1.486;2022-11-09T15:58:24;17.70;67.10
39427;DHT22;25938;48.470;1.486;2022-11-09T16:00:50;17.70;67.10
39427;DHT22;25938;48.470;1.486;2022-11-09T16:03:16;17.70;67.20
39427;DHT22;25938;48.470;1.486;2022-11-09T16:05:43;17.70;67.20
39427;DHT22;25938;48.470;1.486;2022-11-09T16:08:09;17.70;67.20
39427;DHT22;25938;48.470;1.486;2022-11-09T16:10:35;17.70;67.20
39427;DHT22;25938;48.470;1.486;2022-11-09T16:13:02;17.70;67.20
39427;DHT22;25938;48.470;1.486;2022-11-09T16:15:29;17.70;67.10
39427;DHT22;25938;48.470;1.486;2022-11-09T16:17:54;17.70;67.10
39427;DHT22;25938;48.470;1.486;2022-11-09T16:20:20;17.70;67.00
39427;DHT22;25938;48.470;1.486;2022-11-09T16:22:46;17.70;66.90
39427;DHT22;25938;48.470;1.486;2022-11-09T16:25:13;17.70;67.00
39427;DHT22;25938;48.470;1.486;2022-11-09T16:27:39;17.70;66.90
39427;DHT22;25938;48.470;1.486;2022-11-09T16:30:05;17.70;66.80
39427;DHT22;25938;48.470;1.486;2022-11-09T16:32:32;17.70;66.80
39427;DHT22;25938;48.470;1.486;2022-11-09T16:34:58;17.70;66.80
39427;DHT22;25938;48.470;1.486;2022-11-09T16:37:23;17.70;66.70
39427;DHT22;25938;48.470;1.486;2022-11-09T16:39:49;17.70;66.70
39427;DHT22;25938;48.470;1.486;2022-11-09T16:42:16;17.70;66.60
39427;DHT22;25938;48.470;1.486;2022-11-09T16:44:45;17.70;66.60
39427;DHT22;25938;48.470;1.486;2022-11-09T16:47:13;17.70;66.50
39427;DHT22;25938;48.470;1.486;2022-11-09T16:49:39;17.70;66.50
39427;DHT22;25938;48.470;1.486;2022-11-09T16:52:05;17.70;66.50
39427;DHT22;25938;48.470;1.486;2022-11-09T16:54:31;17.70;66.50
39427;DHT22;25938;48.470;1.486;2022-11-09T16:56:57;17.70;66.40
39427;DHT22;25938;48.470;1.486;2022-11-09T16:59:23;17.70;66.40
39427;DHT22;25938;48.470;1.486;2022-11-09T17:01:57;17.70;66.30
39427;DHT22;25938;48.470;1.486;2022-11-09T17:04:23;17.70;66.10
39427;DHT22;25938;48.470;1.486;2022-11-09T17:06:50;17.70;66.20
39427;DHT22;25938;48.470;1.486;2022-11-09T17:09:17;17.70;66.10
39427;DHT22;25938;48.470;1.486;2022-11-09T17:11:43;17.70;66.10
39427;DHT22;25938;48.470;1.486;2022-11-09T17:14:09;17.70;66.00
39427;DHT22;25938;48.470;1.486;2022-11-09T17:16:35;17.70;66.00
39427;DHT22;25938;48.470;1.486;2022-11-09T17:19:01;17.70;66.00
39427;DHT22;25938;48.470;1.486;2022-11-09T17:21:28;17.70;65.80
39427;DHT22;25938;48.470;1.486;2022-11-09T17:23:55;17.70;65.80
39427;DHT22;25938;48.470;1.486;2022-11-09T17:26:22;17.70;65.60
39427;DHT22;25938;48.470;1.486;2022-11-09T17:28:48;17.70;65.60
39427;DHT22;25938;48.470;1.486;2022-11-09T17:31:19;17.70;65.50
39427;DHT22;25938;48.470;1.486;2022-11-09T17:33:45;17.70;65.50
39427;DHT22;25938;48.470;1.486;2022-11-09T17:36:12;17.70;65.40
39427;DHT22;25938;48.470;1.486;2022-11-09T17:38:38;17.70;65.40
39427;DHT22;25938;48.470;1.486;2022-11-09T17:41:07;17.70;65.30
39427;DHT22;25938;48.470;1.486;2022-11-09T17:43:37;17.70;65.20
39427;DHT22;25938;48.470;1.486;2022-11-09T17:46:08;17.60;65.00
39427;DHT22;25938;48.470;1.486;2022-11-09T17:48:35;17.60;65.00
39427;DHT22;25938;48.470;1.486;2022-11-09T17:51:02;17.60;65.00
39427;DHT22;25938;48.470;1.486;2022-11-09T17:53:29;17.70;64.90
39427;DHT22;25938;48.470;1.486;2022-11-09T17:55:54;17.60;64.80